sensor_id;sensor_type;location;lat;lon;timestamp;temperature;humidity
14798;DHT22;7490;63.708;20.368;2023-01-24T00:02:19;2.60;93.90
14798;DHT22;7490;63.708;20.368;2023-01-24T00:04:44;2.60;93.80
14798;DHT22;7490;63.708;20.368;2023-01-24T00:07:10;2.60;93.80
14798;DHT22;7490;63.708;20.368;2023-01-24T00:09:35;2.50;93.70
14798;DHT22;7490;63.708;20.368;2023-01-24T00:12:01;2.40;93.70
14798;DHT22;7490;63.708;20.368;2023-01-24T00:14:27;2.30;93.70
14798;DHT22;7490;63.708;20.368;2023-01-24T00:16:52;2.30;93.80
14798;DHT22;7490;63.708;20.368;2023-01-24T00:19:18;2.20;93.80
14798;DHT22;7490;63.708;20.368;2023-01-24T00:21:43;2.20;93.90
14798;DHT22;7490;63.708;20.368;2023-01-24T00:24:09;2.20;93.90
14798;DHT22;7490;63.708;20.368;2023-01-24T00:26:35;2.20;94.00
14798;DHT22;7490;63.708;20.368;2023-01-24T00:29:00;2.30;94.00
14798;DHT22;7490;63.708;20.368;2023-01-24T00:31:26;2.10;94.00
14798;DHT22;7490;63.708;20.368;2023-01-24T00:33:52;2.10;94.00
14798;DHT22;7490;63.708;20.368;2023-01-24T00:36:17;2.10;94.00
14798;DHT22;7490;63.708;20.368;2023-01-24T00:38:43;2.10;94.00
14798;DHT22;7490;63.708;20.368;2023-01-24T00:41:09;2.00;93.90
14798;DHT22;7490;63.708;20.368;2023-01-24T00:43:34;2.00;93.90
14798;DHT22;7490;63.708;20.368;2023-01-24T00:46:00;2.00;94.00
14798;DHT22;7490;63.708;20.368;2023-01-24T00:48:26;1.90;94.00
14798;DHT22;7490;63.708;20.368;2023-01-24T00:50:52;1.80;94.00
14798;DHT22;7490;63.708;20.368;2023-01-24T00:53:17;1.80;94.00
14798;DHT22;7490;63.708;20.368;2023-01-24T00:55:46;1.70;94.00
14798;DHT22;7490;63.708;20.368;2023-01-24T00:58:12;1.70;94.00
14798;DHT22;7490;63.708;20.368;2023-01-24T01:00:38;1.70;94.10
14798;DHT22;7490;63.708;20.368;2023-01-24T01:03:10;1.60;94.20
14798;DHT22;7490;63.708;20.368;2023-01-24T01:05:36;1.60;94.30
14798;DHT22;7490;63.708;20.368;2023-01-24T01:08:01;1.60;94.40
14798;DHT22;7490;63.708;20.368;2023-01-24T01:10:27;1.70;94.50
14798;DHT22;7490;63.708;20.368;2023-01-24T01:12:53;1.80;94.60
14798;DHT22;7490;63.708;20.368;2023-01-24T01:15:18;2.00;94.70
14798;DHT22;7490;63.708;20.368;2023-01-24T01:17:44;1.90;94.70
14798;DHT22;7490;63.708;20.368;2023-01-24T01:20:10;2.00;94.70
14798;DHT22;7490;63.708;20.368;2023-01-24T01:22:36;2.00;94.60
14798;DHT22;7490;63.708;20.368;2023-01-24T01:25:01;2.00;94.60
14798;DHT22;7490;63.708;20.368;2023-01-24T01:27:27;2.10;94.50
14798;DHT22;7490;63.708;20.368;2023-01-24T01:29:53;2.10;94.50
14798;DHT22;7490;63.708;20.368;2023-01-24T01:32:18;2.10;94.50
14798;DHT22;7490;63.708;20.368;2023-01-24T01:34:44;2.00;94.40
14798;DHT22;7490;63.708;20.368;2023-01-24T01:37:10;2.00;94.40
14798;DHT22;7490;63.708;20.368;2023-01-24T01:39:35;2.00;94.40
14798;DHT22;7490;63.708;20.368;2023-01-24T01:42:01;2.00;94.50
14798;DHT22;7490;63.708;20.368;2023-01-24T01:44:29;2.00;94.60
14798;DHT22;7490;63.708;20.368;2023-01-24T01:47:26;2.30;95.00
14798;DHT22;7490;63.708;20.368;2023-01-24T01:50:02;2.10;94.60
14798;DHT22;7490;63.708;20.368;2023-01-24T01:52:33;2.10;94.60
14798;DHT22;7490;63.708;20.368;2023-01-24T01:55:03;2.30;94.70
14798;DHT22;7490;63.708;20.368;2023-01-24T01:57:32;2.10;94.70
14798;DHT22;7490;63.708;20.368;2023-01-24T02:00:05;2.30;94.80
14798;DHT22;7490;63.708;20.368;2023-01-24T02:02:33;2.20;94.70
14798;DHT22;7490;63.708;20.368;2023-01-24T02:05:03;2.20;94.70
14798;DHT22;7490;63.708;20.368;2023-01-24T02:10:21;2.20;94.70
14798;DHT22;7490;63.708;20.368;2023-01-24T02:12:50;2.20;94.70
14798;DHT22;7490;63.708;20.368;2023-01-24T02:15:19;2.20;94.70
14798;DHT22;7490;63.708;20.368;2023-01-24T02:18:05;2.20;94.60
14798;DHT22;7490;63.708;20.368;2023-01-24T02:20:40;2.20;94.40
14798;DHT22;7490;63.708;20.368;2023-01-24T02:26:14;2.00;94.30
14798;DHT22;7490;63.708;20.368;2023-01-24T02:28:50;2.00;94.30
14798;DHT22;7490;63.708;20.368;2023-01-24T02:31:17;1.90;94.30
14798;DHT22;7490;63.708;20.368;2023-01-24T02:33:42;2.10;94.40
14798;DHT22;7490;63.708;20.368;2023-01-24T02:38:43;1.70;94.30
14798;DHT22;7490;63.708;20.368;2023-01-24T02:41:11;1.60;94.40
14798;DHT22;7490;63.708;20.368;2023-01-24T02:43:41;1.60;94.40
14798;DHT22;7490;63.708;20.368;2023-01-24T02:46:08;1.50;94.40
14798;DHT22;7490;63.708;20.368;2023-01-24T02:48:33;1.50;94.40
14798;DHT22;7490;63.708;20.368;2023-01-24T02:50:59;1.40;94.40
14798;DHT22;7490;63.708;20.368;2023-01-24T02:53:43;1.40;94.40
14798;DHT22;7490;63.708;20.368;2023-01-24T02:56:09;1.30;94.40
14798;DHT22;7490;63.708;20.368;2023-01-24T02:58:54;1.30;94.40
14798;DHT22;7490;63.708;20.368;2023-01-24T03:01:21;0.80;94.30
14798;DHT22;7490;63.708;20.368;2023-01-24T03:03:47;1.20;94.30
14798;DHT22;7490;63.708;20.368;2023-01-24T03:06:14;1.10;94.30
14798;DHT22;7490;63.708;20.368;2023-01-24T03:08:41;1.10;94.40
14798;DHT22;7490;63.708;20.368;2023-01-24T03:11:08;1.10;94.40
14798;DHT22;7490;63.708;20.368;2023-01-24T03:13:34;1.00;94.40
14798;DHT22;7490;63.708;20.368;2023-01-24T03:16:19;1.00;94.50
14798;DHT22;7490;63.708;20.368;2023-01-24T03:19:04;1.00;94.60
14798;DHT22;7490;63.708;20.368;2023-01-24T03:21:48;1.00;94.60
14798;DHT22;7490;63.708;20.368;2023-01-24T03:24:32;0.90;94.60
14798;DHT22;7490;63.708;20.368;2023-01-24T03:27:17;0.90;94.60
14798;DHT22;7490;63.708;20.368;2023-01-24T03:30:03;1.00;94.50
14798;DHT22;7490;63.708;20.368;2023-01-24T03:32:48;0.80;94.50
14798;DHT22;7490;63.708;20.368;2023-01-24T03:35:32;0.80;94.50
14798;DHT22;7490;63.708;20.368;2023-01-24T03:37:57;0.80;94.50
14798;DHT22;7490;63.708;20.368;2023-01-24T03:40:42;0.80;94.60
14798;DHT22;7490;63.708;20.368;2023-01-24T03:43:08;0.80;94.40
14798;DHT22;7490;63.708;20.368;2023-01-24T03:45:36;0.80;94.30
14798;DHT22;7490;63.708;20.368;2023-01-24T03:48:07;0.90;94.30
14798;DHT22;7490;63.708;20.368;2023-01-24T03:50:41;0.70;94.30
14798;DHT22;7490;63.708;20.368;2023-01-24T03:53:28;0.70;94.30
14798;DHT22;7490;63.708;20.368;2023-01-24T03:55:57;0.70;94.40
14798;DHT22;7490;63.708;20.368;2023-01-24T03:58:24;0.60;94.40
14798;DHT22;7490;63.708;20.368;2023-01-24T04:00:51;0.60;94.30
14798;DHT22;7490;63.708;20.368;2023-01-24T04:03:16;0.60;94.20
14798;DHT22;7490;63.708;20.368;2023-01-24T04:05:42;0.60;94.20
14798;DHT22;7490;63.708;20.368;2023-01-24T04:08:08;0.60;94.20
14798;DHT22;7490;63.708;20.368;2023-01-24T04:10:34;0.50;94.20
14798;DHT22;7490;63.708;20.368;2023-01-24T04:12:59;0.50;94.20
14798;DHT22;7490;63.708;20.368;2023-01-24T04:15:28;0.50;94.20
14798;DHT22;7490;63.708;20.368;2023-01-24T04:17:55;0.50;94.30
14798;DHT22;7490;63.708;20.368;2023-01-24T04:20:25;0.50;94.40
14798;DHT22;7490;63.708;20.368;2023-01-24T04:22:50;0.40;94.30
14798;DHT22;7490;63.708;20.368;2023-01-24T04:25:16;0.40;94.40
14798;DHT22;7490;63.708;20.368;2023-01-24T04:27:42;0.40;94.30
14798;DHT22;7490;63.708;20.368;2023-01-24T04:30:10;0.40;94.30
14798;DHT22;7490;63.708;20.368;2023-01-24T04:32:36;0.40;94.20
14798;DHT22;7490;63.708;20.368;2023-01-24T04:35:03;0.30;94.20
14798;DHT22;7490;63.708;20.368;2023-01-24T04:37:29;0.30;94.50
14798;DHT22;7490;63.708;20.368;2023-01-24T04:39:55;0.30;94.10
14798;DHT22;7490;63.708;20.368;2023-01-24T04:42:21;0.30;94.10
14798;DHT22;7490;63.708;20.368;2023-01-24T04:44:47;0.30;94.00
14798;DHT22;7490;63.708;20.368;2023-01-24T04:47:12;0.20;94.00
14798;DHT22;7490;63.708;20.368;2023-01-24T04:49:38;0.20;93.90
14798;DHT22;7490;63.708;20.368;2023-01-24T04:52:04;0.20;93.90
14798;DHT22;7490;63.708;20.368;2023-01-24T04:54:29;0.20;93.80
14798;DHT22;7490;63.708;20.368;2023-01-24T04:56:55;0.20;93.90
14798;DHT22;7490;63.708;20.368;2023-01-24T04:59:21;0.10;93.80
14798;DHT22;7490;63.708;20.368;2023-01-24T05:01:46;0.10;93.80
14798;DHT22;7490;63.708;20.368;2023-01-24T05:04:12;0.10;93.90
14798;DHT22;7490;63.708;20.368;2023-01-24T05:06:38;0.10;93.80
14798;DHT22;7490;63.708;20.368;2023-01-24T05:09:03;0.00;93.60
14798;DHT22;7490;63.708;20.368;2023-01-24T05:11:30;0.00;93.70
14798;DHT22;7490;63.708;20.368;2023-01-24T05:13:55;0.00;93.80
14798;DHT22;7490;63.708;20.368;2023-01-24T05:16:21;-0.10;93.80
14798;DHT22;7490;63.708;20.368;2023-01-24T05:18:47;0.10;93.90
14798;DHT22;7490;63.708;20.368;2023-01-24T05:21:17;-0.10;93.80
14798;DHT22;7490;63.708;20.368;2023-01-24T05:23:43;-0.10;93.70
14798;DHT22;7490;63.708;20.368;2023-01-24T05:26:12;-0.10;93.80
14798;DHT22;7490;63.708;20.368;2023-01-24T05:28:38;-0.20;93.70
14798;DHT22;7490;63.708;20.368;2023-01-24T05:31:05;-0.30;93.70
14798;DHT22;7490;63.708;20.368;2023-01-24T05:33:34;-0.30;93.60
14798;DHT22;7490;63.708;20.368;2023-01-24T05:36:05;-0.30;93.60
14798;DHT22;7490;63.708;20.368;2023-01-24T05:38:32;-0.40;93.60
14798;DHT22;7490;63.708;20.368;2023-01-24T05:41:02;-0.30;93.60
14798;DHT22;7490;63.708;20.368;2023-01-24T05:43:29;-0.40;93.60
14798;DHT22;7490;63.708;20.368;2023-01-24T05:46:05;-0.20;93.60
14798;DHT22;7490;63.708;20.368;2023-01-24T05:48:31;-0.50;93.40
14798;DHT22;7490;63.708;20.368;2023-01-24T05:50:58;-0.50;93.30
14798;DHT22;7490;63.708;20.368;2023-01-24T05:53:26;-0.50;93.30
14798;DHT22;7490;63.708;20.368;2023-01-24T05:55:59;-0.60;93.20
14798;DHT22;7490;63.708;20.368;2023-01-24T05:58:27;-0.60;93.20
14798;DHT22;7490;63.708;20.368;2023-01-24T06:00:53;-0.60;93.20
14798;DHT22;7490;63.708;20.368;2023-01-24T06:03:19;-0.60;93.20
14798;DHT22;7490;63.708;20.368;2023-01-24T06:05:50;-0.70;93.20
14798;DHT22;7490;63.708;20.368;2023-01-24T06:08:16;-0.70;93.20
14798;DHT22;7490;63.708;20.368;2023-01-24T06:10:42;-0.80;93.20
14798;DHT22;7490;63.708;20.368;2023-01-24T06:13:08;-0.80;93.40
14798;DHT22;7490;63.708;20.368;2023-01-24T06:15:34;-0.90;93.50
14798;DHT22;7490;63.708;20.368;2023-01-24T06:18:00;-0.80;93.60
14798;DHT22;7490;63.708;20.368;2023-01-24T06:20:26;-0.80;93.60
14798;DHT22;7490;63.708;20.368;2023-01-24T06:22:55;-0.60;93.80
14798;DHT22;7490;63.708;20.368;2023-01-24T06:25:24;-0.90;93.80
14798;DHT22;7490;63.708;20.368;2023-01-24T06:27:50;-0.90;93.90
14798;DHT22;7490;63.708;20.368;2023-01-24T06:30:17;-0.90;93.90
14798;DHT22;7490;63.708;20.368;2023-01-24T06:37:56;-0.90;93.90
14798;DHT22;7490;63.708;20.368;2023-01-24T06:40:23;-0.90;94.00
14798;DHT22;7490;63.708;20.368;2023-01-24T06:42:51;-0.90;94.00
14798;DHT22;7490;63.708;20.368;2023-01-24T06:45:17;-0.90;93.90
14798;DHT22;7490;63.708;20.368;2023-01-24T06:47:43;-0.80;93.90
14798;DHT22;7490;63.708;20.368;2023-01-24T06:50:14;-0.90;93.90
14798;DHT22;7490;63.708;20.368;2023-01-24T06:52:40;-0.70;93.90
14798;DHT22;7490;63.708;20.368;2023-01-24T06:55:06;-0.80;94.00
14798;DHT22;7490;63.708;20.368;2023-01-24T06:57:32;-0.80;93.90
14798;DHT22;7490;63.708;20.368;2023-01-24T06:59:58;-0.80;93.90
14798;DHT22;7490;63.708;20.368;2023-01-24T07:02:23;-0.80;94.00
14798;DHT22;7490;63.708;20.368;2023-01-24T07:04:49;-0.80;94.00
14798;DHT22;7490;63.708;20.368;2023-01-24T07:07:14;-0.80;93.90
14798;DHT22;7490;63.708;20.368;2023-01-24T07:09:40;-0.60;94.00
14798;DHT22;7490;63.708;20.368;2023-01-24T07:12:06;-0.60;94.10
14798;DHT22;7490;63.708;20.368;2023-01-24T07:14:32;-0.70;94.20
14798;DHT22;7490;63.708;20.368;2023-01-24T07:16:57;-0.70;94.10
14798;DHT22;7490;63.708;20.368;2023-01-24T07:19:23;-0.70;94.00
14798;DHT22;7490;63.708;20.368;2023-01-24T07:21:51;-0.70;94.00
14798;DHT22;7490;63.708;20.368;2023-01-24T07:24:21;-0.70;93.90
14798;DHT22;7490;63.708;20.368;2023-01-24T07:26:47;-0.70;93.80
14798;DHT22;7490;63.708;20.368;2023-01-24T07:29:17;-0.80;93.70
14798;DHT22;7490;63.708;20.368;2023-01-24T07:31:43;-0.80;93.60
14798;DHT22;7490;63.708;20.368;2023-01-24T07:34:09;-0.80;93.60
14798;DHT22;7490;63.708;20.368;2023-01-24T07:36:34;-0.80;93.60
14798;DHT22;7490;63.708;20.368;2023-01-24T07:39:00;-0.90;93.60
14798;DHT22;7490;63.708;20.368;2023-01-24T07:41:26;-0.90;93.50
14798;DHT22;7490;63.708;20.368;2023-01-24T07:43:51;-0.90;93.50
14798;DHT22;7490;63.708;20.368;2023-01-24T07:46:18;-0.90;93.50
14798;DHT22;7490;63.708;20.368;2023-01-24T07:48:44;-0.90;93.60
14798;DHT22;7490;63.708;20.368;2023-01-24T07:51:10;-0.90;93.70
14798;DHT22;7490;63.708;20.368;2023-01-24T07:53:36;-0.90;94.00
14798;DHT22;7490;63.708;20.368;2023-01-24T07:56:02;-0.90;94.20
14798;DHT22;7490;63.708;20.368;2023-01-24T07:58:29;-0.90;94.20
14798;DHT22;7490;63.708;20.368;2023-01-24T08:00:55;-0.90;94.20
14798;DHT22;7490;63.708;20.368;2023-01-24T08:03:20;-0.80;94.30
14798;DHT22;7490;63.708;20.368;2023-01-24T08:05:46;-0.80;94.20
14798;DHT22;7490;63.708;20.368;2023-01-24T08:08:12;-0.70;94.30
14798;DHT22;7490;63.708;20.368;2023-01-24T08:10:37;-0.70;94.20
14798;DHT22;7490;63.708;20.368;2023-01-24T08:13:03;-0.70;94.30
14798;DHT22;7490;63.708;20.368;2023-01-24T08:15:29;-0.70;94.30
14798;DHT22;7490;63.708;20.368;2023-01-24T08:17:54;-0.70;94.10
14798;DHT22;7490;63.708;20.368;2023-01-24T08:20:20;-0.60;94.30
14798;DHT22;7490;63.708;20.368;2023-01-24T08:22:46;-0.70;94.00
14798;DHT22;7490;63.708;20.368;2023-01-24T08:25:12;-0.70;94.10
14798;DHT22;7490;63.708;20.368;2023-01-24T08:27:41;-0.60;94.10
14798;DHT22;7490;63.708;20.368;2023-01-24T08:30:08;-0.60;94.00
14798;DHT22;7490;63.708;20.368;2023-01-24T08:32:36;-0.60;94.00
14798;DHT22;7490;63.708;20.368;2023-01-24T08:35:02;-0.60;94.10
14798;DHT22;7490;63.708;20.368;2023-01-24T08:37:27;-0.60;94.50
14798;DHT22;7490;63.708;20.368;2023-01-24T08:39:53;-0.20;95.70
14798;DHT22;7490;63.708;20.368;2023-01-24T08:42:22;0.30;95.80
14798;DHT22;7490;63.708;20.368;2023-01-24T08:44:48;0.80;95.30
14798;DHT22;7490;63.708;20.368;2023-01-24T08:47:13;0.90;95.20
14798;DHT22;7490;63.708;20.368;2023-01-24T08:49:39;1.30;95.50
14798;DHT22;7490;63.708;20.368;2023-01-24T08:52:05;1.90;95.20
14798;DHT22;7490;63.708;20.368;2023-01-24T08:54:31;2.40;94.20
14798;DHT22;7490;63.708;20.368;2023-01-24T08:57:02;2.20;93.10
14798;DHT22;7490;63.708;20.368;2023-01-24T08:59:28;2.00;92.50
14798;DHT22;7490;63.708;20.368;2023-01-24T09:01:53;1.90;92.50
14798;DHT22;7490;63.708;20.368;2023-01-24T09:04:19;1.60;92.70
14798;DHT22;7490;63.708;20.368;2023-01-24T09:06:45;1.40;92.80
14798;DHT22;7490;63.708;20.368;2023-01-24T09:09:12;1.30;93.00
14798;DHT22;7490;63.708;20.368;2023-01-24T09:11:38;1.20;93.10
14798;DHT22;7490;63.708;20.368;2023-01-24T09:14:04;1.10;93.30
14798;DHT22;7490;63.708;20.368;2023-01-24T09:16:29;1.10;93.40
14798;DHT22;7490;63.708;20.368;2023-01-24T09:18:55;1.00;93.50
14798;DHT22;7490;63.708;20.368;2023-01-24T09:21:21;1.00;93.60
14798;DHT22;7490;63.708;20.368;2023-01-24T09:23:47;1.00;93.60
14798;DHT22;7490;63.708;20.368;2023-01-24T09:26:13;1.00;93.70
14798;DHT22;7490;63.708;20.368;2023-01-24T09:28:39;1.00;93.70
14798;DHT22;7490;63.708;20.368;2023-01-24T09:31:07;1.10;93.80
14798;DHT22;7490;63.708;20.368;2023-01-24T09:33:34;1.10;93.80
14798;DHT22;7490;63.708;20.368;2023-01-24T09:36:01;1.10;93.80
14798;DHT22;7490;63.708;20.368;2023-01-24T09:38:29;1.20;93.80
14798;DHT22;7490;63.708;20.368;2023-01-24T09:46:39;1.20;94.00
14798;DHT22;7490;63.708;20.368;2023-01-24T09:49:38;1.20;94.10
14798;DHT22;7490;63.708;20.368;2023-01-24T09:52:09;1.30;94.20
14798;DHT22;7490;63.708;20.368;2023-01-24T09:55:22;1.40;94.30
14798;DHT22;7490;63.708;20.368;2023-01-24T09:57:54;1.50;94.60
14798;DHT22;7490;63.708;20.368;2023-01-24T10:00:26;1.80;94.90
14798;DHT22;7490;63.708;20.368;2023-01-24T10:02:55;2.20;94.80
14798;DHT22;7490;63.708;20.368;2023-01-24T10:05:21;2.40;94.40
14798;DHT22;7490;63.708;20.368;2023-01-24T10:24:16;4.00;93.70
14798;DHT22;7490;63.708;20.368;2023-01-24T10:26:52;4.20;93.40
14798;DHT22;7490;63.708;20.368;2023-01-24T10:29:21;4.40;93.40
14798;DHT22;7490;63.708;20.368;2023-01-24T10:34:34;4.70;93.00
14798;DHT22;7490;63.708;20.368;2023-01-24T10:39:39;4.90;93.00
14798;DHT22;7490;63.708;20.368;2023-01-24T10:42:20;5.10;92.90
14798;DHT22;7490;63.708;20.368;2023-01-24T10:44:47;5.30;92.70
14798;DHT22;7490;63.708;20.368;2023-01-24T10:50:01;5.30;92.10
14798;DHT22;7490;63.708;20.368;2023-01-24T10:52:29;5.10;92.00
14798;DHT22;7490;63.708;20.368;2023-01-24T10:54:59;4.90;92.30
14798;DHT22;7490;63.708;20.368;2023-01-24T10:57:48;4.80;92.60
14798;DHT22;7490;63.708;20.368;2023-01-24T11:02:40;4.90;93.00
14798;DHT22;7490;63.708;20.368;2023-01-24T11:05:12;5.10;93.00
14798;DHT22;7490;63.708;20.368;2023-01-24T11:07:38;5.40;92.70
14798;DHT22;7490;63.708;20.368;2023-01-24T11:10:27;5.50;92.50
14798;DHT22;7490;63.708;20.368;2023-01-24T11:12:58;5.80;92.50
14798;DHT22;7490;63.708;20.368;2023-01-24T11:15:28;6.10;92.40
14798;DHT22;7490;63.708;20.368;2023-01-24T11:18:13;6.60;92.00
14798;DHT22;7490;63.708;20.368;2023-01-24T11:20:42;7.00;91.40
14798;DHT22;7490;63.708;20.368;2023-01-24T11:23:17;7.30;90.80
14798;DHT22;7490;63.708;20.368;2023-01-24T11:26:00;7.50;90.50
14798;DHT22;7490;63.708;20.368;2023-01-24T11:28:29;7.80;90.10
14798;DHT22;7490;63.708;20.368;2023-01-24T11:30:58;7.90;89.40
14798;DHT22;7490;63.708;20.368;2023-01-24T11:36:28;7.80;87.30
14798;DHT22;7490;63.708;20.368;2023-01-24T11:39:02;7.50;87.10
14798;DHT22;7490;63.708;20.368;2023-01-24T11:41:39;7.30;87.40
14798;DHT22;7490;63.708;20.368;2023-01-24T11:44:38;7.00;87.20
14798;DHT22;7490;63.708;20.368;2023-01-24T11:47:09;6.80;87.50
14798;DHT22;7490;63.708;20.368;2023-01-24T11:49:57;6.50;88.00
14798;DHT22;7490;63.708;20.368;2023-01-24T11:53:06;6.10;88.40
14798;DHT22;7490;63.708;20.368;2023-01-24T12:01:43;4.70;90.70
14798;DHT22;7490;63.708;20.368;2023-01-24T12:12:34;3.70;92.10
14798;DHT22;7490;63.708;20.368;2023-01-24T12:15:02;3.60;92.30
14798;DHT22;7490;63.708;20.368;2023-01-24T12:17:53;3.50;92.30
14798;DHT22;7490;63.708;20.368;2023-01-24T12:22:54;3.30;92.20
14798;DHT22;7490;63.708;20.368;2023-01-24T12:25:31;3.20;92.30
14798;DHT22;7490;63.708;20.368;2023-01-24T12:28:01;3.10;92.30
14798;DHT22;7490;63.708;20.368;2023-01-24T12:30:44;3.00;92.30
14798;DHT22;7490;63.708;20.368;2023-01-24T12:35:45;2.70;92.30
14798;DHT22;7490;63.708;20.368;2023-01-24T12:43:58;2.40;92.40
14798;DHT22;7490;63.708;20.368;2023-01-24T12:46:35;2.40;92.50
14798;DHT22;7490;63.708;20.368;2023-01-24T12:52:06;2.20;92.60
14798;DHT22;7490;63.708;20.368;2023-01-24T12:54:45;2.10;92.70
14798;DHT22;7490;63.708;20.368;2023-01-24T12:57:30;2.10;92.70
14798;DHT22;7490;63.708;20.368;2023-01-24T12:59:57;2.00;92.70
14798;DHT22;7490;63.708;20.368;2023-01-24T13:03:18;2.00;92.60
14798;DHT22;7490;63.708;20.368;2023-01-24T13:06:20;1.90;92.60
14798;DHT22;7490;63.708;20.368;2023-01-24T13:11:43;1.70;93.00
14798;DHT22;7490;63.708;20.368;2023-01-24T13:14:33;1.60;93.00
14798;DHT22;7490;63.708;20.368;2023-01-24T13:30:49;1.30;93.10
14798;DHT22;7490;63.708;20.368;2023-01-24T13:33:38;1.20;93.10
14798;DHT22;7490;63.708;20.368;2023-01-24T13:36:06;1.20;93.10
14798;DHT22;7490;63.708;20.368;2023-01-24T13:38:41;1.10;93.10
14798;DHT22;7490;63.708;20.368;2023-01-24T13:49:18;1.00;93.70
14798;DHT22;7490;63.708;20.368;2023-01-24T13:51:48;0.90;93.70
14798;DHT22;7490;63.708;20.368;2023-01-24T13:59:33;0.90;93.70
14798;DHT22;7490;63.708;20.368;2023-01-24T14:02:01;0.80;93.70
14798;DHT22;7490;63.708;20.368;2023-01-24T14:04:41;0.80;93.70
14798;DHT22;7490;63.708;20.368;2023-01-24T14:07:18;0.80;93.80
14798;DHT22;7490;63.708;20.368;2023-01-24T14:09:46;0.70;93.70
14798;DHT22;7490;63.708;20.368;2023-01-24T14:12:17;0.70;93.70
14798;DHT22;7490;63.708;20.368;2023-01-24T14:15:05;0.70;93.80
14798;DHT22;7490;63.708;20.368;2023-01-24T14:20:42;0.60;93.90
14798;DHT22;7490;63.708;20.368;2023-01-24T14:23:17;0.60;94.00
14798;DHT22;7490;63.708;20.368;2023-01-24T14:25:53;0.60;94.40
14798;DHT22;7490;63.708;20.368;2023-01-24T14:28:32;0.60;94.30
14798;DHT22;7490;63.708;20.368;2023-01-24T14:31:24;0.60;94.20
14798;DHT22;7490;63.708;20.368;2023-01-24T14:34:20;0.60;94.30
14798;DHT22;7490;63.708;20.368;2023-01-24T14:36:59;0.60;94.40
14798;DHT22;7490;63.708;20.368;2023-01-24T14:39:26;0.60;94.50
14798;DHT22;7490;63.708;20.368;2023-01-24T14:41:58;0.70;94.30
14798;DHT22;7490;63.708;20.368;2023-01-24T14:49:29;0.60;94.70
14798;DHT22;7490;63.708;20.368;2023-01-24T14:51:55;0.60;94.90
14798;DHT22;7490;63.708;20.368;2023-01-24T14:54:22;0.60;94.90
14798;DHT22;7490;63.708;20.368;2023-01-24T14:56:48;0.70;95.00
14798;DHT22;7490;63.708;20.368;2023-01-24T14:59:17;0.70;95.10
14798;DHT22;7490;63.708;20.368;2023-01-24T15:01:44;0.80;95.10
14798;DHT22;7490;63.708;20.368;2023-01-24T15:04:27;0.70;95.00
14798;DHT22;7490;63.708;20.368;2023-01-24T15:07:26;1.00;95.00
14798;DHT22;7490;63.708;20.368;2023-01-24T15:09:52;0.80;94.90
14798;DHT22;7490;63.708;20.368;2023-01-24T15:14:48;0.80;95.00
14798;DHT22;7490;63.708;20.368;2023-01-24T15:17:18;1.00;95.20
14798;DHT22;7490;63.708;20.368;2023-01-24T15:19:48;0.90;95.20
14798;DHT22;7490;63.708;20.368;2023-01-24T15:22:20;0.90;95.30
14798;DHT22;7490;63.708;20.368;2023-01-24T15:24:57;0.90;95.30
14798;DHT22;7490;63.708;20.368;2023-01-24T15:30:15;1.00;95.50
14798;DHT22;7490;63.708;20.368;2023-01-24T15:32:48;1.00;95.60
14798;DHT22;7490;63.708;20.368;2023-01-24T15:35:44;1.10;95.60
14798;DHT22;7490;63.708;20.368;2023-01-24T15:38:23;1.00;95.50
14798;DHT22;7490;63.708;20.368;2023-01-24T15:40:52;1.00;95.40
14798;DHT22;7490;63.708;20.368;2023-01-24T15:46:28;1.10;95.40
14798;DHT22;7490;63.708;20.368;2023-01-24T15:49:29;1.00;95.20
14798;DHT22;7490;63.708;20.368;2023-01-24T15:52:25;1.00;95.00
14798;DHT22;7490;63.708;20.368;2023-01-24T15:54:58;1.00;95.00
14798;DHT22;7490;63.708;20.368;2023-01-24T15:57:33;0.90;94.80
14798;DHT22;7490;63.708;20.368;2023-01-24T16:00:22;0.90;94.80
14798;DHT22;7490;63.708;20.368;2023-01-24T16:02:47;0.90;95.20
14798;DHT22;7490;63.708;20.368;2023-01-24T16:05:19;0.90;94.90
14798;DHT22;7490;63.708;20.368;2023-01-24T16:07:45;0.80;95.10
14798;DHT22;7490;63.708;20.368;2023-01-24T16:10:17;0.80;95.10
14798;DHT22;7490;63.708;20.368;2023-01-24T16:12:44;0.90;95.20
14798;DHT22;7490;63.708;20.368;2023-01-24T16:15:19;0.90;95.30
14798;DHT22;7490;63.708;20.368;2023-01-24T16:17:46;0.90;95.30
14798;DHT22;7490;63.708;20.368;2023-01-24T16:20:18;0.90;95.00
14798;DHT22;7490;63.708;20.368;2023-01-24T16:22:45;0.90;95.00
14798;DHT22;7490;63.708;20.368;2023-01-24T16:25:11;0.90;95.20
14798;DHT22;7490;63.708;20.368;2023-01-24T16:27:37;0.90;95.30
14798;DHT22;7490;63.708;20.368;2023-01-24T16:30:05;1.10;95.40
14798;DHT22;7490;63.708;20.368;2023-01-24T16:32:31;0.90;95.40
14798;DHT22;7490;63.708;20.368;2023-01-24T16:34:58;1.00;95.60
14798;DHT22;7490;63.708;20.368;2023-01-24T16:37:23;1.10;95.80
14798;DHT22;7490;63.708;20.368;2023-01-24T16:39:49;1.10;95.90
14798;DHT22;7490;63.708;20.368;2023-01-24T16:42:17;1.40;96.10
14798;DHT22;7490;63.708;20.368;2023-01-24T16:44:56;1.30;96.10
14798;DHT22;7490;63.708;20.368;2023-01-24T16:47:24;1.50;96.30
14798;DHT22;7490;63.708;20.368;2023-01-24T16:49:52;1.90;96.30
14798;DHT22;7490;63.708;20.368;2023-01-24T16:52:18;1.80;96.20
14798;DHT22;7490;63.708;20.368;2023-01-24T16:54:43;1.80;96.10
14798;DHT22;7490;63.708;20.368;2023-01-24T16:57:09;1.80;96.00
14798;DHT22;7490;63.708;20.368;2023-01-24T16:59:35;1.80;95.90
14798;DHT22;7490;63.708;20.368;2023-01-24T17:02:00;1.80;95.90
14798;DHT22;7490;63.708;20.368;2023-01-24T17:04:26;1.80;96.00
14798;DHT22;7490;63.708;20.368;2023-01-24T17:06:51;1.90;96.10
14798;DHT22;7490;63.708;20.368;2023-01-24T17:09:17;1.80;96.20
14798;DHT22;7490;63.708;20.368;2023-01-24T17:11:43;1.80;96.30
14798;DHT22;7490;63.708;20.368;2023-01-24T17:14:08;1.90;96.40
14798;DHT22;7490;63.708;20.368;2023-01-24T17:16:34;1.90;96.40
14798;DHT22;7490;63.708;20.368;2023-01-24T17:19:00;1.90;96.40
14798;DHT22;7490;63.708;20.368;2023-01-24T17:21:26;1.90;96.40
14798;DHT22;7490;63.708;20.368;2023-01-24T17:23:52;1.90;96.90
14798;DHT22;7490;63.708;20.368;2023-01-24T17:26:18;2.00;96.60
14798;DHT22;7490;63.708;20.368;2023-01-24T17:28:45;2.00;96.50
14798;DHT22;7490;63.708;20.368;2023-01-24T17:31:13;2.00;96.70
14798;DHT22;7490;63.708;20.368;2023-01-24T17:33:40;2.00;96.30
14798;DHT22;7490;63.708;20.368;2023-01-24T17:36:06;2.00;96.30
14798;DHT22;7490;63.708;20.368;2023-01-24T17:38:33;2.00;96.40
14798;DHT22;7490;63.708;20.368;2023-01-24T17:40:59;2.00;96.50
14798;DHT22;7490;63.708;20.368;2023-01-24T17:43:25;2.10;96.60
14798;DHT22;7490;63.708;20.368;2023-01-24T17:45:55;2.10;96.60
14798;DHT22;7490;63.708;20.368;2023-01-24T17:48:22;2.10;96.50
14798;DHT22;7490;63.708;20.368;2023-01-24T17:50:48;2.10;96.50
14798;DHT22;7490;63.708;20.368;2023-01-24T17:53:18;2.10;96.50
14798;DHT22;7490;63.708;20.368;2023-01-24T17:55:44;2.10;96.50
14798;DHT22;7490;63.708;20.368;2023-01-24T17:58:11;2.10;96.50
14798;DHT22;7490;63.708;20.368;2023-01-24T18:00:37;2.10;96.40
14798;DHT22;7490;63.708;20.368;2023-01-24T18:03:02;2.20;96.40
14798;DHT22;7490;63.708;20.368;2023-01-24T18:05:29;2.10;96.40